Time;durP1;ratioP1;P1;durP2;ratioP2;P2;SDS_P1;SDS_P2;PMS_P1;PMS_P2;Temp;Humidity;BMP_temperature;BMP_pressure;BME280_temperature;BME280_humidity;BME280_pressure;Samples;Min_cycle;Max_cycle;Signal;HPM_P1;HPM_P2
2021/06/19 00:00:11;;;;;;;36.83;30.35;;;19.60;95.20;;;;;;5013763;28;20050;-51
2021/06/19 00:02:38;;;;;;;33.20;29.13;;;19.70;95.30;;;;;;5015124;28;20042;-51
2021/06/19 00:05:05;;;;;;;37.58;30.92;;;19.70;95.20;;;;;;4996351;28;20196;-53
2021/06/19 00:07:30;;;;;;;35.70;29.85;;;19.60;95.20;;;;;;5014613;28;20046;-50
2021/06/19 00:09:57;;;;;;;35.30;30.73;;;19.60;95.30;;;;;;4993412;28;20051;-48
2021/06/19 00:12:23;;;;;;;39.28;32.53;;;19.60;95.50;;;;;;5008181;28;20042;-49
2021/06/19 00:14:49;;;;;;;36.35;30.98;;;19.60;95.40;;;;;;5011446;28;20034;-48
2021/06/19 00:17:15;;;;;;;38.72;31.48;;;19.60;95.40;;;;;;4995092;28;20049;-51
2021/06/19 00:19:41;;;;;;;36.38;32.38;;;19.60;95.50;;;;;;4975210;28;20509;-49
2021/06/19 00:22:07;;;;;;;42.97;35.00;;;19.60;95.50;;;;;;5003744;28;20042;-50
2021/06/19 00:24:39;;;;;;;37.90;33.08;;;19.60;95.60;;;;;;5013473;28;20052;-50
2021/06/19 00:27:07;;;;;;;37.80;32.85;;;19.60;95.50;;;;;;5015227;28;20046;-53
2021/06/19 00:29:34;;;;;;;39.92;33.70;;;19.60;95.50;;;;;;5015401;28;20045;-51
2021/06/19 00:32:00;;;;;;;38.95;33.13;;;19.70;95.60;;;;;;4995918;28;20046;-52
2021/06/19 00:34:26;;;;;;;39.55;33.22;;;19.60;95.50;;;;;;5012336;28;20046;-53
2021/06/19 00:36:51;;;;;;;44.00;33.35;;;19.70;95.60;;;;;;5006112;28;20181;-53
2021/06/19 00:39:17;;;;;;;43.63;36.17;;;19.70;95.60;;;;;;5010666;28;20042;-51
2021/06/19 00:41:43;;;;;;;38.50;34.38;;;19.70;95.60;;;;;;5010587;28;20121;-51
2021/06/19 00:44:17;;;;;;;42.20;34.33;;;19.70;95.60;;;;;;5013979;28;20159;-52
2021/06/19 00:46:43;;;;;;;43.95;35.47;;;19.70;95.60;;;;;;4977990;28;20045;-52
2021/06/19 00:49:10;;;;;;;40.40;34.72;;;19.70;95.60;;;;;;5021120;28;20045;-52
2021/06/19 00:51:36;;;;;;;41.22;33.33;;;19.70;95.60;;;;;;4980543;28;20053;-52
2021/06/19 00:54:04;;;;;;;42.75;34.80;;;19.70;95.60;;;;;;5012117;28;20430;-53
2021/06/19 00:56:32;;;;;;;42.70;33.72;;;19.60;95.90;;;;;;5013419;28;20457;-52
2021/06/19 00:58:57;;;;;;;42.60;34.60;;;19.70;95.70;;;;;;4980352;28;20451;-52
2021/06/19 01:01:23;;;;;;;42.83;35.58;;;19.60;95.60;;;;;;4992954;28;20069;-51
2021/06/19 01:03:51;;;;;;;41.13;35.40;;;19.60;95.60;;;;;;4993684;28;20045;-53
2021/06/19 01:06:17;;;;;;;46.03;36.78;;;19.60;95.90;;;;;;5019475;28;20050;-50
2021/06/19 01:08:42;;;;;;;48.85;36.75;;;19.60;96.00;;;;;;5015047;28;20084;-53
2021/06/19 01:11:08;;;;;;;45.22;36.10;;;19.70;95.80;;;;;;5029174;28;20049;-52
2021/06/19 01:13:35;;;;;;;48.03;37.92;;;19.70;95.80;;;;;;5015929;28;20107;-53
2021/06/19 01:16:01;;;;;;;45.28;34.97;;;19.60;95.70;;;;;;5005157;28;20044;-53
2021/06/19 01:18:27;;;;;;;44.08;36.42;;;19.70;95.80;;;;;;5022438;28;20490;-53
2021/06/19 01:20:53;;;;;;;44.58;36.13;;;19.70;95.80;;;;;;5022506;28;20073;-53
2021/06/19 01:23:19;;;;;;;44.28;35.78;;;19.70;95.80;;;;;;5011050;28;20469;-53
2021/06/19 01:25:45;;;;;;;48.05;36.40;;;19.60;95.70;;;;;;4992820;28;20092;-53
2021/06/19 01:28:11;;;;;;;42.97;34.28;;;19.60;95.70;;;;;;4993857;28;20049;-51
2021/06/19 01:30:38;;;;;;;39.45;33.70;;;19.60;95.70;;;;;;5011289;28;20042;-52
2021/06/19 01:33:08;;;;;;;50.88;37.42;;;19.60;95.60;;;;;;4990870;28;20065;-51
2021/06/19 01:35:36;;;;;;;38.20;33.85;;;19.60;95.70;;;;;;4986824;28;20490;-52
2021/06/19 01:38:04;;;;;;;42.35;37.22;;;19.60;95.80;;;;;;5010277;28;20072;-51
2021/06/19 01:40:32;;;;;;;47.72;36.92;;;19.60;95.80;;;;;;4993440;28;20034;-53
2021/06/19 01:42:59;;;;;;;49.15;36.50;;;19.60;95.90;;;;;;4993143;28;20398;-50
2021/06/19 01:45:27;;;;;;;47.97;38.60;;;19.70;95.80;;;;;;5010267;28;20621;-52
2021/06/19 01:47:54;;;;;;;44.33;38.08;;;19.70;95.90;;;;;;4993125;28;20050;-53
2021/06/19 01:50:23;;;;;;;43.10;36.45;;;19.70;95.80;;;;;;5010534;28;20124;-51
2021/06/19 01:52:50;;;;;;;43.47;36.55;;;19.70;95.80;;;;;;4998280;28;20038;-51
2021/06/19 01:55:17;;;;;;;43.25;35.60;;;19.70;95.80;;;;;;5017972;28;20056;-51
2021/06/19 01:57:43;;;;;;;39.55;34.60;;;19.70;95.70;;;;;;5017921;28;20034;-51
2021/06/19 02:00:17;;;;;;;41.15;34.88;;;19.70;95.70;;;;;;5017983;28;20110;-50
2021/06/19 02:02:43;;;;;;;40.65;35.28;;;19.70;95.60;;;;;;5023859;28;20137;-50
2021/06/19 02:05:11;;;;;;;39.45;33.08;;;19.70;95.60;;;;;;5017757;28;20518;-52
2021/06/19 02:07:56;;;;;;;41.53;34.90;;;19.70;95.60;;;;;;5018005;28;20064;-52
2021/06/19 02:10:25;;;;;;;34.85;30.75;;;19.70;95.50;;;;;;5024656;28;20034;-53
2021/06/19 02:12:52;;;;;;;35.47;30.15;;;19.70;95.50;;;;;;5000026;28;20038;-51
2021/06/19 02:15:18;;;;;;;36.08;29.92;;;19.70;95.40;;;;;;5005912;28;20417;-53
2021/06/19 02:17:44;;;;;;;35.95;28.73;;;19.70;95.30;;;;;;4987025;28;20426;-51
2021/06/19 02:20:13;;;;;;;34.72;30.48;;;19.70;95.20;;;;;;5000921;28;20050;-51
2021/06/19 02:22:43;;;;;;;36.40;29.15;;;19.70;95.20;;;;;;5002045;28;20030;-52
2021/06/19 02:25:12;;;;;;;34.50;29.05;;;19.70;95.20;;;;;;5017758;28;20046;-53
2021/06/19 02:27:50;;;;;;;31.88;27.25;;;19.70;95.10;;;;;;5001118;28;20038;-49
2021/06/19 02:30:16;;;;;;;29.88;26.33;;;19.70;95.10;;;;;;5005209;28;20517;-51
2021/06/19 02:32:42;;;;;;;30.63;25.13;;;19.60;95.00;;;;;;5022719;28;20112;-52
2021/06/19 02:35:09;;;;;;;27.48;24.52;;;19.60;94.90;;;;;;5012944;28;20100;-51
2021/06/19 02:37:35;;;;;;;30.25;26.38;;;19.60;94.90;;;;;;4998160;28;20442;-48
2021/06/19 02:40:01;;;;;;;31.92;26.40;;;19.60;94.80;;;;;;5001426;28;20041;-51
2021/06/19 02:42:33;;;;;;;27.77;24.88;;;19.50;94.80;;;;;;4997185;28;20046;-52
2021/06/19 02:44:59;;;;;;;28.15;24.15;;;19.50;94.80;;;;;;5005547;28;20152;-50
2021/06/19 02:47:24;;;;;;;32.25;25.77;;;19.50;94.80;;;;;;4983501;28;20081;-50
2021/06/19 02:49:50;;;;;;;29.77;24.83;;;19.50;94.80;;;;;;5018195;28;20379;-51
2021/06/19 02:52:17;;;;;;;29.92;26.73;;;19.50;94.70;;;;;;5000276;28;20045;-51
2021/06/19 02:54:43;;;;;;;29.63;24.55;;;19.50;94.70;;;;;;5013851;28;20053;-53
2021/06/19 02:57:09;;;;;;;26.90;23.98;;;19.40;94.70;;;;;;5014346;28;20482;-52
2021/06/19 02:59:38;;;;;;;29.08;25.80;;;19.40;94.70;;;;;;4997777;28;20065;-51
2021/06/19 03:02:05;;;;;;;30.40;25.02;;;19.40;94.70;;;;;;5017131;28;20042;-52
2021/06/19 03:04:31;;;;;;;28.83;25.77;;;19.40;94.60;;;;;;5014838;28;20046;-51
2021/06/19 03:06:57;;;;;;;28.85;24.88;;;19.40;94.70;;;;;;5000622;28;20092;-52
2021/06/19 03:09:24;;;;;;;29.50;25.23;;;19.40;94.70;;;;;;5017137;28;20659;-53
2021/06/19 03:11:50;;;;;;;30.83;25.40;;;19.40;94.80;;;;;;4982980;28;20050;-51
2021/06/19 03:14:17;;;;;;;28.73;25.05;;;19.40;94.70;;;;;;5016590;28;20410;-50
2021/06/19 03:16:43;;;;;;;30.15;26.15;;;19.30;94.70;;;;;;5016765;28;20038;-51
2021/06/19 03:19:10;;;;;;;27.88;24.75;;;19.30;94.70;;;;;;4984322;28;20045;-52
2021/06/19 03:21:36;;;;;;;28.67;25.00;;;19.30;94.70;;;;;;5003253;28;20068;-53
2021/06/19 03:24:02;;;;;;;26.90;23.98;;;19.30;94.70;;;;;;5012579;28;20050;-49
2021/06/19 03:26:30;;;;;;;26.25;21.10;;;19.30;94.80;;;;;;5017409;28;20168;-50
2021/06/19 03:28:56;;;;;;;23.48;20.33;;;19.30;94.70;;;;;;5019936;28;20042;-53
2021/06/19 03:31:21;;;;;;;22.13;18.67;;;19.30;94.60;;;;;;5017386;28;20049;-52
2021/06/19 03:33:47;;;;;;;22.48;19.95;;;19.30;94.50;;;;;;5016140;28;20153;-53
2021/06/19 03:36:13;;;;;;;20.42;18.15;;;19.30;94.50;;;;;;4998986;28;20042;-50
2021/06/19 03:38:39;;;;;;;19.75;17.65;;;19.30;94.40;;;;;;5019644;28;20406;-53
2021/06/19 03:41:05;;;;;;;22.25;17.98;;;19.30;94.40;;;;;;5001892;28;20046;-51
2021/06/19 03:43:31;;;;;;;21.20;16.75;;;19.30;94.30;;;;;;5017773;28;20042;-52
2021/06/19 03:45:57;;;;;;;19.55;16.55;;;19.30;94.40;;;;;;4999625;28;20038;-50
2021/06/19 03:48:23;;;;;;;16.90;15.20;;;19.30;94.20;;;;;;5019106;28;20048;-53
2021/06/19 03:50:49;;;;;;;18.95;14.15;;;19.30;94.20;;;;;;5017726;28;20049;-51
2021/06/19 03:53:15;;;;;;;17.52;15.23;;;19.30;94.20;;;;;;4997340;28;20477;-53
2021/06/19 03:55:42;;;;;;;18.33;15.27;;;19.30;94.20;;;;;;4999283;28;20095;-51
2021/06/19 03:58:08;;;;;;;18.67;15.23;;;19.30;94.20;;;;;;4999958;28;20065;-53
2021/06/19 04:00:34;;;;;;;21.98;15.50;;;19.30;94.20;;;;;;4983911;28;20068;-50
2021/06/19 04:03:01;;;;;;;20.38;15.82;;;19.30;94.20;;;;;;4984660;28;21326;-50
2021/06/19 04:05:27;;;;;;;20.60;16.13;;;19.30;94.30;;;;;;5016657;28;20042;-48
2021/06/19 04:07:54;;;;;;;19.85;16.33;;;19.30;94.30;;;;;;5017644;28;20045;-49
2021/06/19 04:10:20;;;;;;;18.90;16.42;;;19.30;94.30;;;;;;5000551;28;20494;-53
2021/06/19 04:12:46;;;;;;;20.10;16.15;;;19.30;94.30;;;;;;5017708;28;20077;-52
2021/06/19 04:15:13;;;;;;;23.50;17.13;;;19.30;94.30;;;;;;4999447;28;20084;-48
2021/06/19 04:17:39;;;;;;;23.27;17.23;;;19.40;94.30;;;;;;4984486;28;20072;-49
2021/06/19 04:20:08;;;;;;;20.25;17.25;;;19.40;94.30;;;;;;5017725;28;20057;-49
2021/06/19 04:22:34;;;;;;;20.55;17.17;;;19.40;94.30;;;;;;5016689;28;20093;-52
2021/06/19 04:25:00;;;;;;;22.15;17.65;;;19.40;94.40;;;;;;5018066;28;20153;-49
2021/06/19 04:27:26;;;;;;;23.77;17.40;;;19.40;94.40;;;;;;4999560;28;20061;-51
2021/06/19 04:29:52;;;;;;;23.20;17.38;;;19.40;94.40;;;;;;5017653;28;20045;-50
2021/06/19 04:32:19;;;;;;;23.58;17.10;;;19.50;94.30;;;;;;5016642;28;20045;-50
2021/06/19 04:34:46;;;;;;;21.88;18.38;;;19.50;94.60;;;;;;4999690;28;20057;-51
2021/06/19 04:37:15;;;;;;;21.65;17.65;;;19.60;94.40;;;;;;5014567;28;20159;-51
2021/06/19 04:39:54;;;;;;;21.65;18.40;;;19.60;94.40;;;;;;4999713;28;20034;-51
2021/06/19 04:42:20;;;;;;;21.35;17.20;;;19.60;94.40;;;;;;4998404;28;20045;-52
2021/06/19 04:47:25;;;;;;;21.77;18.10;;;19.70;94.40;;;;;;5017867;28;20077;-50
2021/06/19 04:49:54;;;;;;;22.13;17.73;;;19.70;94.40;;;;;;5000460;28;20046;-53
2021/06/19 04:52:22;;;;;;;22.10;17.52;;;19.60;94.40;;;;;;5017016;28;20049;-52
2021/06/19 04:54:49;;;;;;;21.33;18.30;;;19.70;94.50;;;;;;5018242;28;20117;-50
2021/06/19 04:57:16;;;;;;;20.17;18.10;;;19.70;94.40;;;;;;4998671;28;20117;-49
2021/06/19 04:59:42;;;;;;;21.17;17.77;;;19.70;94.30;;;;;;5016986;28;20068;-52
2021/06/19 05:02:09;;;;;;;26.02;18.80;;;19.70;94.30;;;;;;5017005;28;20034;-52
2021/06/19 05:04:35;;;;;;;20.60;18.42;;;19.70;94.30;;;;;;5002899;28;20050;-52
2021/06/19 05:07:00;;;;;;;24.13;18.65;;;19.70;94.30;;;;;;5017432;28;20510;-53
2021/06/19 05:09:26;;;;;;;22.88;20.38;;;19.60;94.20;;;;;;4998218;28;20045;-48
2021/06/19 05:11:52;;;;;;;22.63;20.05;;;19.70;94.30;;;;;;5005772;28;20041;-50
2021/06/19 05:14:18;;;;;;;25.05;20.30;;;19.70;94.40;;;;;;5013330;28;20046;-48
2021/06/19 05:16:45;;;;;;;24.83;21.27;;;19.60;94.40;;;;;;4980156;28;20084;-51
2021/06/19 05:19:12;;;;;;;26.48;21.33;;;19.70;94.30;;;;;;5015369;28;20066;-50
2021/06/19 05:21:40;;;;;;;24.65;21.83;;;19.70;94.30;;;;;;4984910;28;20064;-50
2021/06/19 05:24:07;;;;;;;30.33;24.70;;;19.60;94.30;;;;;;4988079;28;20045;-49
2021/06/19 05:26:33;;;;;;;31.23;26.00;;;19.70;94.40;;;;;;5000121;28;20053;-50
2021/06/19 05:29:00;;;;;;;33.88;28.25;;;19.70;94.10;;;;;;5002253;28;20034;-51
2021/06/19 05:31:28;;;;;;;32.53;27.42;;;19.70;93.90;;;;;;5002824;28;20052;-51
2021/06/19 05:33:55;;;;;;;40.72;30.20;;;19.70;93.70;;;;;;5002156;28;20049;-51
2021/06/19 05:36:23;;;;;;;37.60;30.02;;;19.70;93.50;;;;;;5020347;28;20049;-48
2021/06/19 05:38:49;;;;;;;42.35;32.03;;;19.70;93.30;;;;;;5024386;28;20065;-48
2021/06/19 05:41:15;;;;;;;39.90;32.08;;;19.70;93.40;;;;;;4983105;28;20488;-51
2021/06/19 05:43:41;;;;;;;38.60;31.00;;;19.80;93.40;;;;;;5028995;28;20041;-50
2021/06/19 05:46:07;;;;;;;39.67;30.70;;;19.90;93.50;;;;;;4985315;28;20421;-50
2021/06/19 05:48:32;;;;;;;41.83;31.70;;;20.00;93.00;;;;;;5000020;28;20096;-48
2021/06/19 05:50:58;;;;;;;42.60;31.02;;;19.90;93.00;;;;;;5001249;28;20046;-48
2021/06/19 05:53:26;;;;;;;41.22;31.33;;;19.90;92.90;;;;;;5016036;28;20065;-48
2021/06/19 05:55:53;;;;;;;40.92;32.20;;;20.00;92.90;;;;;;5012667;28;20045;-55
2021/06/19 05:58:19;;;;;;;42.00;31.80;;;20.00;92.70;;;;;;4999557;28;20413;-48
2021/06/19 06:00:45;;;;;;;42.42;32.90;;;20.10;92.70;;;;;;5024823;28;20037;-48
2021/06/19 06:03:11;;;;;;;44.05;33.88;;;20.10;92.50;;;;;;4973340;28;20060;-48
2021/06/19 06:05:38;;;;;;;40.38;31.73;;;20.20;92.70;;;;;;5021701;28;20479;-50
2021/06/19 06:08:04;;;;;;;39.17;30.27;;;20.20;92.10;;;;;;4987736;28;20070;-48
2021/06/19 06:10:30;;;;;;;41.13;29.67;;;20.20;91.80;;;;;;4987508;28;20112;-48
2021/06/19 06:12:57;;;;;;;39.78;29.50;;;20.20;91.90;;;;;;5004262;28;20518;-51
2021/06/19 06:15:27;;;;;;;38.08;28.80;;;20.10;91.60;;;;;;5004463;28;20180;-48
2021/06/19 06:17:54;;;;;;;43.40;29.90;;;20.10;91.60;;;;;;5006139;28;20128;-48
2021/06/19 06:20:20;;;;;;;40.60;29.25;;;20.10;91.80;;;;;;5024339;28;20044;-48
2021/06/19 06:22:45;;;;;;;40.47;31.30;;;20.10;91.80;;;;;;5004654;28;20042;-47
2021/06/19 06:25:12;;;;;;;38.25;29.77;;;20.10;91.80;;;;;;5023184;28;20049;-51
2021/06/19 06:27:39;;;;;;;42.22;30.40;;;20.10;91.60;;;;;;5023580;28;20049;-48
2021/06/19 06:30:06;;;;;;;42.85;30.73;;;20.10;91.60;;;;;;5033264;28;20045;-53
2021/06/19 06:32:33;;;;;;;41.60;29.55;;;20.10;91.70;;;;;;5009865;28;20172;-53
2021/06/19 06:34:59;;;;;;;39.95;28.90;;;20.10;91.60;;;;;;5022874;28;20045;-52
2021/06/19 06:37:25;;;;;;;43.28;29.77;;;20.20;91.70;;;;;;5005669;28;20075;-52
2021/06/19 06:39:53;;;;;;;40.40;29.27;;;20.10;91.50;;;;;;5001335;28;20050;-53
2021/06/19 06:42:19;;;;;;;41.40;29.00;;;20.20;91.10;;;;;;4994224;28;20097;-53
2021/06/19 06:44:44;;;;;;;40.83;29.65;;;20.20;91.30;;;;;;5018191;28;20038;-50
2021/06/19 06:47:10;;;;;;;44.22;30.08;;;20.30;91.40;;;;;;5016409;28;20428;-50
2021/06/19 06:49:36;;;;;;;46.78;30.70;;;20.30;91.40;;;;;;4995949;28;20041;-50
2021/06/19 06:52:03;;;;;;;39.50;28.33;;;20.30;91.30;;;;;;5005793;28;20030;-52
2021/06/19 06:54:28;;;;;;;45.55;28.65;;;20.40;90.70;;;;;;4994810;28;20050;-50
2021/06/19 06:56:55;;;;;;;41.83;28.30;;;20.40;90.80;;;;;;4979332;28;20410;-52
2021/06/19 06:59:22;;;;;;;43.28;26.98;;;20.40;91.00;;;;;;4995916;28;20050;-52
2021/06/19 07:01:48;;;;;;;42.42;28.83;;;20.40;90.90;;;;;;5013334;28;20056;-53
2021/06/19 07:04:14;;;;;;;39.25;28.33;;;20.40;90.90;;;;;;4995235;28;20048;-54
2021/06/19 07:06:40;;;;;;;39.75;26.77;;;20.40;90.60;;;;;;5013121;28;20509;-53
2021/06/19 07:09:05;;;;;;;43.38;26.83;;;20.50;90.70;;;;;;5013632;28;20046;-51
2021/06/19 07:11:31;;;;;;;40.78;28.05;;;20.60;90.60;;;;;;5013512;28;20061;-49
2021/06/19 07:13:57;;;;;;;38.05;26.35;;;20.60;90.60;;;;;;5011375;28;20382;-51
2021/06/19 07:16:23;;;;;;;37.42;24.73;;;20.60;90.30;;;;;;4994870;28;20428;-51
2021/06/19 07:18:49;;;;;;;38.15;24.45;;;20.60;90.00;;;;;;5013138;28;20074;-50
2021/06/19 07:21:16;;;;;;;36.95;24.45;;;20.60;89.00;;;;;;5012856;28;20065;-48
2021/06/19 07:23:43;;;;;;;39.88;25.85;;;20.60;89.50;;;;;;4995550;28;20038;-51
2021/06/19 07:26:09;;;;;;;43.10;27.42;;;20.60;89.70;;;;;;4994885;28;20042;-51
2021/06/19 07:28:34;;;;;;;39.40;27.00;;;20.60;90.00;;;;;;4994335;28;20592;-51
2021/06/19 07:31:00;;;;;;;41.80;26.52;;;20.60;90.20;;;;;;5013594;28;21693;-52
2021/06/19 07:33:26;;;;;;;44.35;27.90;;;20.50;89.40;;;;;;5012797;28;20083;-52
2021/06/19 07:35:54;;;;;;;39.65;26.70;;;20.50;89.70;;;;;;4994641;28;20044;-49
2021/06/19 07:38:20;;;;;;;40.78;26.38;;;20.50;90.10;;;;;;5012790;28;20045;-50
2021/06/19 07:40:46;;;;;;;39.42;26.15;;;20.50;90.20;;;;;;5013986;28;20038;-49
2021/06/19 07:43:12;;;;;;;40.63;26.50;;;20.60;90.30;;;;;;5015159;28;20667;-48
2021/06/19 07:45:38;;;;;;;40.58;25.67;;;20.60;90.40;;;;;;5014747;28;20038;-52
2021/06/19 07:48:04;;;;;;;38.28;25.58;;;20.60;90.10;;;;;;5005253;28;20077;-51
2021/06/19 07:50:30;;;;;;;36.53;24.23;;;20.60;90.10;;;;;;5015268;28;20125;-51
2021/06/19 07:52:56;;;;;;;37.13;24.45;;;20.60;89.60;;;;;;4997579;28;20108;-50
2021/06/19 07:55:23;;;;;;;32.90;22.45;;;20.60;89.70;;;;;;4998479;28;20054;-51
2021/06/19 07:57:48;;;;;;;34.30;23.02;;;20.60;89.60;;;;;;5015230;28;20610;-53
2021/06/19 08:00:15;;;;;;;35.38;22.45;;;20.70;89.20;;;;;;5021567;28;20072;-50
2021/06/19 08:02:43;;;;;;;31.55;19.20;;;20.80;89.50;;;;;;5015164;28;20053;-51
2021/06/19 08:05:11;;;;;;;28.48;20.02;;;20.90;87.60;;;;;;4997005;28;20431;-52
2021/06/19 08:07:36;;;;;;;28.85;19.83;;;20.90;86.90;;;;;;4996395;28;20096;-50
2021/06/19 08:10:03;;;;;;;26.15;18.35;;;20.90;86.80;;;;;;5016072;28;20450;-51
2021/06/19 08:12:30;;;;;;;29.42;18.42;;;20.90;85.90;;;;;;5019393;28;20041;-52
2021/06/19 08:14:56;;;;;;;25.55;17.27;;;21.00;86.30;;;;;;4984370;28;20053;-51
2021/06/19 08:17:25;;;;;;;25.27;17.20;;;21.00;85.90;;;;;;5021924;28;20045;-50
2021/06/19 08:19:52;;;;;;;29.55;18.80;;;21.10;86.20;;;;;;4979302;28;20042;-50
2021/06/19 08:22:19;;;;;;;26.02;16.85;;;21.10;85.90;;;;;;4988556;28;20052;-51
2021/06/19 08:24:47;;;;;;;25.52;17.25;;;21.10;85.10;;;;;;4992791;28;20042;-52
2021/06/19 08:27:13;;;;;;;25.85;17.15;;;21.20;85.10;;;;;;5011020;28;20113;-49
2021/06/19 08:29:39;;;;;;;25.73;16.95;;;21.30;85.70;;;;;;4995767;28;20570;-53
2021/06/19 08:32:08;;;;;;;21.70;14.90;;;21.40;85.40;;;;;;5014751;28;20041;-52
2021/06/19 08:34:34;;;;;;;17.50;13.48;;;21.60;84.90;;;;;;4996129;28;20084;-51
2021/06/19 08:37:01;;;;;;;20.95;14.93;;;21.60;83.80;;;;;;4990924;28;20046;-50
2021/06/19 08:39:27;;;;;;;20.15;13.55;;;21.70;83.50;;;;;;5013847;28;20038;-48
2021/06/19 08:41:57;;;;;;;19.98;14.25;;;21.80;83.00;;;;;;5014981;28;20061;-48
2021/06/19 08:44:25;;;;;;;19.70;13.80;;;21.80;80.60;;;;;;4999733;28;20037;-51
2021/06/19 08:46:52;;;;;;;20.60;13.70;;;21.80;81.00;;;;;;5015819;28;20053;-50
2021/06/19 08:49:19;;;;;;;19.33;13.60;;;21.90;81.20;;;;;;5014066;28;20038;-51
2021/06/19 08:51:46;;;;;;;20.75;14.20;;;21.90;80.90;;;;;;5014306;28;20081;-49
2021/06/19 08:54:13;;;;;;;22.63;14.40;;;21.90;79.40;;;;;;4997587;28;20124;-51
2021/06/19 08:56:40;;;;;;;19.35;13.98;;;21.80;80.10;;;;;;4982166;28;20045;-52
2021/06/19 08:59:06;;;;;;;18.92;13.18;;;21.90;79.90;;;;;;5012827;28;20042;-53
2021/06/19 09:01:32;;;;;;;16.98;12.45;;;21.90;80.30;;;;;;4979433;28;20046;-51
2021/06/19 09:04:03;;;;;;;20.85;13.55;;;21.90;80.30;;;;;;4996771;28;20054;-50
2021/06/19 09:06:29;;;;;;;19.05;12.77;;;21.90;80.00;;;;;;4995879;28;20053;-51
2021/06/19 09:08:59;;;;;;;15.65;11.48;;;21.80;79.70;;;;;;5013355;28;20029;-53
2021/06/19 09:11:35;;;;;;;18.77;12.85;;;21.80;79.70;;;;;;5012817;28;20195;-53
2021/06/19 09:14:28;;;;;;;20.00;13.30;;;21.80;79.20;;;;;;5012670;28;20087;-52
2021/06/19 09:16:58;;;;;;;19.38;13.20;;;21.80;79.10;;;;;;5014298;28;20465;-51
2021/06/19 09:19:30;;;;;;;18.80;12.35;;;21.90;79.80;;;;;;4996577;28;20120;-50
2021/06/19 09:22:20;;;;;;;17.35;12.85;;;21.90;80.00;;;;;;5014370;28;20037;-50
2021/06/19 09:24:52;;;;;;;16.55;12.18;;;21.90;78.30;;;;;;4996168;28;20041;-52
2021/06/19 09:27:42;;;;;;;18.33;12.50;;;22.00;78.90;;;;;;5013112;28;20142;-48
2021/06/19 09:30:08;;;;;;;16.80;13.00;;;21.90;78.80;;;;;;5006173;28;20415;-51
2021/06/19 09:32:40;;;;;;;20.30;13.23;;;21.80;79.40;;;;;;5013346;28;20034;-51
2021/06/19 09:35:25;;;;;;;16.38;12.07;;;21.70;79.80;;;;;;4995097;28;20049;-50
2021/06/19 09:38:12;;;;;;;17.42;12.25;;;21.70;80.20;;;;;;4996108;28;20596;-51
2021/06/19 09:40:43;;;;;;;16.92;12.50;;;21.70;80.90;;;;;;5013194;28;20041;-51
2021/06/19 09:43:11;;;;;;;17.65;12.02;;;21.60;80.90;;;;;;5012416;28;20066;-52
2021/06/19 09:45:40;;;;;;;20.20;12.25;;;21.60;80.10;;;;;;5014514;28;20050;-52
2021/06/19 09:48:26;;;;;;;15.27;12.85;;;21.60;79.90;;;;;;5014615;28;20335;-51
2021/06/19 09:51:17;;;;;;;15.98;12.50;;;21.60;80.30;;;;;;4984364;28;20072;-51
2021/06/19 09:53:48;;;;;;;14.00;11.68;;;21.60;80.90;;;;;;5026280;28;20125;-50
2021/06/19 09:56:16;;;;;;;15.43;12.10;;;21.60;80.70;;;;;;5012579;28;20487;-50
2021/06/19 09:58:56;;;;;;;13.57;11.38;;;21.50;81.00;;;;;;5026868;28;20049;-48
2021/06/19 10:01:36;;;;;;;13.88;10.50;;;21.50;80.10;;;;;;4995747;28;20049;-52
2021/06/19 10:04:03;;;;;;;12.85;10.60;;;21.50;80.10;;;;;;4983621;28;20049;-50
2021/06/19 10:06:31;;;;;;;12.68;10.30;;;21.50;80.40;;;;;;5003911;28;20041;-52
2021/06/19 10:08:58;;;;;;;14.75;10.65;;;21.50;80.60;;;;;;4995568;28;20045;-50
2021/06/19 10:11:26;;;;;;;12.82;11.18;;;21.50;80.80;;;;;;5012581;28;20447;-52
2021/06/19 10:13:57;;;;;;;12.55;9.90;;;21.50;80.60;;;;;;5013829;28;20494;-51
2021/06/19 10:16:25;;;;;;;12.48;9.90;;;21.50;81.00;;;;;;5016139;28;20078;-48
2021/06/19 10:18:53;;;;;;;10.18;8.27;;;21.70;81.70;;;;;;4999487;28;20042;-52
2021/06/19 10:21:21;;;;;;;10.25;8.13;;;21.90;81.50;;;;;;5003258;28;20095;-52
2021/06/19 10:23:48;;;;;;;9.83;8.07;;;22.10;80.10;;;;;;5020914;28;20049;-49
2021/06/19 10:26:15;;;;;;;9.38;7.80;;;22.20;79.50;;;;;;4998504;28;20666;-51
2021/06/19 10:28:45;;;;;;;10.90;8.30;;;22.30;79.00;;;;;;5016730;28;20045;-52
2021/06/19 10:31:11;;;;;;;11.60;8.38;;;22.30;78.60;;;;;;5017220;28;20116;-50
2021/06/19 10:33:38;;;;;;;11.10;9.40;;;22.40;78.00;;;;;;4999174;28;20042;-50
2021/06/19 10:36:06;;;;;;;11.02;8.77;;;22.30;77.10;;;;;;5015328;28;20046;-51
2021/06/19 10:38:45;;;;;;;11.10;9.48;;;22.30;76.90;;;;;;5016975;28;20050;-52
2021/06/19 10:41:11;;;;;;;12.80;10.30;;;22.30;73.20;;;;;;5018087;28;20453;-52
2021/06/19 10:43:46;;;;;;;11.27;8.88;;;22.30;75.40;;;;;;5018044;28;20109;-53
2021/06/19 10:46:30;;;;;;;11.70;9.13;;;22.30;76.20;;;;;;5016575;28;20041;-53
2021/06/19 10:48:58;;;;;;;10.15;9.07;;;22.30;76.10;;;;;;5003602;28;20046;-49
2021/06/19 10:51:29;;;;;;;9.45;8.45;;;22.30;76.30;;;;;;4995616;28;20046;-52
2021/06/19 10:54:15;;;;;;;10.82;8.45;;;22.40;75.60;;;;;;4998009;28;20481;-51
2021/06/19 10:56:56;;;;;;;9.77;7.90;;;22.30;74.30;;;;;;5013278;28;20045;-52
2021/06/19 10:59:29;;;;;;;10.90;9.13;;;22.40;75.40;;;;;;5001439;28;20045;-53
2021/06/19 11:01:57;;;;;;;9.35;8.02;;;22.50;75.00;;;;;;5013399;28;20116;-52
2021/06/19 11:04:34;;;;;;;10.63;9.50;;;22.40;75.50;;;;;;5012650;28;20603;-53
2021/06/19 11:07:01;;;;;;;11.35;10.25;;;22.50;74.20;;;;;;5013283;28;20129;-52
2021/06/19 11:09:41;;;;;;;11.32;10.23;;;22.40;73.70;;;;;;5014008;28;20331;-49
2021/06/19 11:12:14;;;;;;;11.73;10.20;;;22.40;74.50;;;;;;5013194;28;20121;-53
2021/06/19 11:14:43;;;;;;;14.13;12.63;;;22.40;74.50;;;;;;4979043;28;20050;-51
2021/06/19 11:17:09;;;;;;;14.95;13.52;;;22.50;74.40;;;;;;5013084;28;20502;-52
2021/06/19 11:19:50;;;;;;;13.25;11.82;;;22.60;75.60;;;;;;5013212;28;20053;-48
2021/06/19 11:22:36;;;;;;;14.15;12.65;;;22.90;74.00;;;;;;5013529;28;20375;-49
2021/06/19 11:25:32;;;;;;;18.13;13.15;;;23.10;74.60;;;;;;4994239;28;20042;-51
2021/06/19 11:27:59;;;;;;;15.68;13.52;;;23.30;75.30;;;;;;5007951;28;20034;-53
2021/06/19 11:30:34;;;;;;;16.17;14.30;;;23.50;75.00;;;;;;5007169;28;20388;-50
2021/06/19 11:33:22;;;;;;;16.30;14.32;;;23.50;71.30;;;;;;5000576;28;20513;-49
2021/06/19 11:35:58;;;;;;;16.25;14.65;;;23.50;72.70;;;;;;5011646;28;20053;-52
2021/06/19 11:38:24;;;;;;;16.05;14.27;;;23.60;72.90;;;;;;5001842;28;20034;-53
2021/06/19 11:40:50;;;;;;;16.10;14.60;;;23.60;72.90;;;;;;4978470;28;20072;-53
2021/06/19 11:43:32;;;;;;;16.30;14.52;;;23.70;72.80;;;;;;5012527;28;20498;-53
2021/06/19 11:45:59;;;;;;;18.77;16.45;;;23.60;71.10;;;;;;5010887;28;20050;-52
2021/06/19 11:48:25;;;;;;;21.25;17.77;;;23.60;73.30;;;;;;5012691;28;20055;-54
2021/06/19 11:50:51;;;;;;;20.40;18.25;;;23.60;74.50;;;;;;4995145;28;20038;-53
2021/06/19 11:53:33;;;;;;;19.45;17.42;;;23.60;74.00;;;;;;5012800;28;20042;-51
2021/06/19 11:56:12;;;;;;;18.77;16.80;;;23.50;72.80;;;;;;5000566;28;20038;-50
2021/06/19 11:58:43;;;;;;;20.80;18.70;;;23.30;74.10;;;;;;5011979;28;20045;-50
2021/06/19 12:01:09;;;;;;;22.33;19.98;;;23.30;76.70;;;;;;5012305;28;20053;-53
2021/06/19 12:03:35;;;;;;;19.60;17.52;;;23.30;76.20;;;;;;5012181;28;20054;-52
2021/06/19 12:06:01;;;;;;;18.48;16.67;;;23.40;76.40;;;;;;5018060;28;20047;-52
2021/06/19 12:08:27;;;;;;;18.17;16.38;;;23.40;75.10;;;;;;5014509;28;20053;-52
2021/06/19 12:10:53;;;;;;;19.40;17.48;;;23.30;75.10;;;;;;5017927;28;20038;-52
2021/06/19 12:13:36;;;;;;;19.17;17.27;;;23.30;75.70;;;;;;5010177;28;20050;-53
2021/06/19 12:16:05;;;;;;;19.73;17.83;;;23.40;75.80;;;;;;5011904;28;20529;-51
2021/06/19 12:18:31;;;;;;;19.65;17.65;;;23.40;76.00;;;;;;5020435;28;20403;-53
2021/06/19 12:21:02;;;;;;;20.50;18.30;;;23.50;75.60;;;;;;5011751;28;20053;-52
2021/06/19 12:23:41;;;;;;;20.52;18.52;;;23.40;75.20;;;;;;4986989;28;20092;-51
2021/06/19 12:26:12;;;;;;;20.25;18.30;;;23.50;75.70;;;;;;5011141;28;20099;-53
2021/06/19 12:28:51;;;;;;;20.83;18.83;;;23.50;75.10;;;;;;5012050;28;20045;-53
2021/06/19 12:31:22;;;;;;;20.20;18.17;;;23.40;74.60;;;;;;4992973;28;20494;-51
2021/06/19 12:33:56;;;;;;;19.95;17.90;;;23.30;75.10;;;;;;5014247;28;20088;-51
2021/06/19 12:36:23;;;;;;;19.88;17.88;;;23.30;76.20;;;;;;5009105;28;20060;-48